Time;durP1;ratioP1;P1;durP2;ratioP2;P2;SDS_P1;SDS_P2;PMS_P1;PMS_P2;Temp;Humidity;BMP_temperature;BMP_pressure;BME280_temperature;BME280_humidity;BME280_pressure;Samples;Min_cycle;Max_cycle;Signal;HPM_P1;HPM_P2
2021/01/19 00:01:35;;;;;;;36.70;8.90;;;6.90;93.20;;;;;;5074936;28;20445;-73
2021/01/19 00:04:02;;;;;;;10.00;5.37;;;6.90;92.90;;;;;;5074997;28;20444;-73
2021/01/19 00:06:29;;;;;;;11.83;5.50;;;6.80;92.70;;;;;;5074937;28;20455;-73
2021/01/19 00:08:55;;;;;;;6.93;4.43;;;6.80;92.90;;;;;;5074633;28;20925;-73
2021/01/19 00:11:21;;;;;;;12.77;4.80;;;6.80;92.70;;;;;;5074618;28;20464;-73
2021/01/19 00:13:47;;;;;;;8.90;4.60;;;6.80;92.60;;;;;;5074689;28;20844;-73
2021/01/19 00:16:13;;;;;;;9.40;4.23;;;6.70;92.70;;;;;;5074728;28;20440;-73
2021/01/19 00:18:40;;;;;;;7.43;4.33;;;6.70;92.50;;;;;;5074766;28;20429;-73
2021/01/19 00:21:06;;;;;;;8.43;4.30;;;6.70;92.70;;;;;;5074640;28;20441;-73
2021/01/19 00:23:33;;;;;;;8.50;4.47;;;6.70;92.60;;;;;;5074599;28;20539;-73
2021/01/19 00:25:59;;;;;;;9.70;4.20;;;6.60;92.60;;;;;;5074034;28;20440;-73
2021/01/19 00:28:25;;;;;;;9.27;3.83;;;6.70;92.60;;;;;;5074483;28;20444;-73
2021/01/19 00:30:52;;;;;;;7.93;4.20;;;6.70;92.40;;;;;;5074394;28;20441;-73
2021/01/19 00:33:18;;;;;;;7.93;3.70;;;6.70;92.50;;;;;;5074267;28;20483;-73
2021/01/19 00:35:44;;;;;;;12.90;3.53;;;6.70;92.40;;;;;;5074075;28;20961;-73
2021/01/19 00:38:11;;;;;;;5.30;3.83;;;6.70;92.40;;;;;;5074351;28;20536;-73
2021/01/19 00:40:38;;;;;;;9.10;4.03;;;6.70;92.30;;;;;;5074299;28;20494;-73
2021/01/19 00:43:04;;;;;;;8.50;3.17;;;6.70;92.20;;;;;;5074159;28;20457;-73
2021/01/19 00:45:30;;;;;;;7.20;3.60;;;6.80;92.20;;;;;;5074214;28;20445;-73
2021/01/19 00:47:56;;;;;;;5.33;3.70;;;6.70;92.20;;;;;;5074137;28;20441;-73
2021/01/19 00:50:24;;;;;;;6.97;3.50;;;6.80;92.40;;;;;;5074087;28;20455;-73
2021/01/19 00:52:50;;;;;;;8.37;3.43;;;6.80;92.30;;;;;;5073943;28;20487;-73
2021/01/19 00:55:16;;;;;;;8.63;3.90;;;6.80;92.20;;;;;;5074208;28;20852;-73
2021/01/19 00:57:45;;;;;;;10.40;3.40;;;6.80;91.80;;;;;;5074387;28;20486;-73
2021/01/19 01:00:14;;;;;;;10.67;3.80;;;6.90;91.90;;;;;;5073701;28;20511;-73
2021/01/19 01:02:40;;;;;;;6.43;3.60;;;6.90;91.90;;;;;;5073753;28;20457;-73
2021/01/19 01:05:08;;;;;;;9.50;3.07;;;6.90;91.50;;;;;;5074371;28;20449;-73
2021/01/19 01:07:35;;;;;;;9.60;2.80;;;6.90;91.40;;;;;;5073845;28;20440;-73
2021/01/19 01:10:03;;;;;;;11.50;3.20;;;6.90;91.30;;;;;;5073939;28;20455;-73
2021/01/19 01:12:29;;;;;;;7.53;3.37;;;6.90;91.40;;;;;;5073564;28;20986;-73
2021/01/19 01:14:56;;;;;;;10.83;2.90;;;6.90;91.50;;;;;;5073707;28;20448;-73
2021/01/19 01:17:22;;;;;;;5.20;3.07;;;6.90;91.40;;;;;;5073673;28;20448;-73
2021/01/19 01:19:48;;;;;;;5.17;2.60;;;6.90;91.60;;;;;;5073679;28;20467;-73
2021/01/19 01:22:15;;;;;;;11.33;3.73;;;6.90;91.60;;;;;;5073552;28;20464;-73
2021/01/19 01:24:41;;;;;;;6.53;2.90;;;7.00;91.40;;;;;;5073602;28;20447;-73
2021/01/19 01:27:07;;;;;;;6.80;2.10;;;6.90;91.20;;;;;;5073585;28;20451;-73
2021/01/19 01:29:33;;;;;;;5.87;2.50;;;6.90;91.00;;;;;;5073263;28;20798;-73
2021/01/19 01:32:01;;;;;;;10.37;2.60;;;6.90;91.10;;;;;;5073215;28;20457;-73
2021/01/19 01:34:27;;;;;;;7.60;2.40;;;7.00;90.90;;;;;;5073437;28;20499;-73
2021/01/19 01:36:53;;;;;;;6.17;2.40;;;7.00;90.80;;;;;;5072607;28;20506;-73
2021/01/19 01:39:19;;;;;;;9.33;2.60;;;6.90;90.70;;;;;;5073161;28;20995;-73
2021/01/19 01:41:45;;;;;;;5.50;2.50;;;6.90;90.50;;;;;;5073361;28;20440;-73
2021/01/19 01:44:12;;;;;;;8.53;2.77;;;6.90;90.60;;;;;;5073441;28;20448;-73
2021/01/19 01:46:38;;;;;;;8.50;2.93;;;7.00;90.20;;;;;;5073108;28;20859;-73
2021/01/19 01:49:05;;;;;;;4.47;2.10;;;7.00;90.00;;;;;;5073116;28;20951;-73
2021/01/19 01:51:32;;;;;;;6.00;2.17;;;6.90;89.80;;;;;;5073327;28;20444;-74
2021/01/19 01:54:01;;;;;;;9.47;2.43;;;6.90;89.80;;;;;;5072993;28;21027;-73
2021/01/19 01:56:27;;;;;;;6.67;2.03;;;6.90;89.70;;;;;;5073296;28;20451;-73
2021/01/19 01:58:54;;;;;;;6.30;2.10;;;6.90;89.70;;;;;;5073256;28;20464;-73
2021/01/19 02:01:20;;;;;;;9.63;2.40;;;6.90;89.20;;;;;;5073251;28;20444;-74
2021/01/19 02:03:46;;;;;;;6.73;2.13;;;6.80;89.30;;;;;;5073154;28;20870;-73
2021/01/19 02:06:15;;;;;;;9.00;2.73;;;6.80;89.10;;;;;;5073176;28;20448;-73
2021/01/19 02:08:58;;;;;;;7.90;2.87;;;6.80;89.00;;;;;;5072832;28;20962;-73
2021/01/19 02:11:33;;;;;;;9.33;2.67;;;6.80;89.80;;;;;;5072863;28;20887;-73
2021/01/19 02:14:11;;;;;;;12.40;3.93;;;6.80;88.80;;;;;;5072750;28;20460;-73
2021/01/19 02:16:50;;;;;;;10.00;3.90;;;6.70;88.60;;;;;;5073116;28;20466;-73
2021/01/19 02:19:55;;;;;;;10.07;3.00;;;6.70;89.00;;;;;;5072867;28;20428;-73
2021/01/19 02:22:58;;;;;;;7.13;2.47;;;6.70;88.90;;;;;;5041734;28;20490;-73
2021/01/19 02:25:33;;;;;;;7.17;2.80;;;6.60;88.70;;;;;;5073084;28;20428;-73
2021/01/19 02:28:16;;;;;;;7.57;2.20;;;6.60;88.40;;;;;;5073066;28;20769;-74
2021/01/19 02:30:52;;;;;;;5.43;2.10;;;6.50;88.60;;;;;;5072647;28;20903;-73
2021/01/19 02:33:26;;;;;;;7.60;2.57;;;6.60;88.90;;;;;;5072483;28;20984;-73
2021/01/19 02:36:04;;;;;;;4.33;2.07;;;6.50;89.30;;;;;;5072949;28;20465;-73
2021/01/19 02:38:36;;;;;;;5.60;2.27;;;6.50;88.50;;;;;;5072861;28;20433;-73
2021/01/19 02:41:05;;;;;;;2.43;2.00;;;6.50;88.70;;;;;;5072879;28;20771;-74
2021/01/19 02:43:33;;;;;;;5.63;2.50;;;6.40;88.90;;;;;;5072428;28;20986;-73
2021/01/19 02:46:00;;;;;;;6.60;2.30;;;6.50;89.30;;;;;;5072892;28;20444;-73
2021/01/19 02:48:27;;;;;;;10.90;2.63;;;6.40;89.10;;;;;;5074661;28;20445;-73
2021/01/19 02:50:54;;;;;;;10.67;2.43;;;6.40;89.00;;;;;;5076439;28;20449;-74
2021/01/19 02:53:21;;;;;;;6.13;2.60;;;6.40;89.10;;;;;;5076321;28;20516;-73
2021/01/19 02:55:49;;;;;;;7.57;2.23;;;6.40;89.40;;;;;;5076348;28;20444;-73
2021/01/19 02:58:39;;;;;;;10.87;2.90;;;6.30;89.20;;;;;;5076279;28;20448;-73
2021/01/19 03:01:07;;;;;;;7.73;3.33;;;6.40;89.30;;;;;;5076277;28;20479;-73
2021/01/19 03:03:36;;;;;;;12.77;3.07;;;6.30;89.40;;;;;;5076070;28;20456;-73
2021/01/19 03:06:08;;;;;;;6.30;2.73;;;6.30;89.80;;;;;;5076094;28;20452;-73
2021/01/19 03:08:35;;;;;;;7.87;2.70;;;6.30;89.40;;;;;;5075858;28;20535;-73
2021/01/19 03:11:05;;;;;;;6.33;2.80;;;6.20;89.50;;;;;;5075790;28;20466;-73
2021/01/19 03:13:31;;;;;;;6.30;3.50;;;6.30;89.80;;;;;;5075872;28;20491;-73
2021/01/19 03:16:08;;;;;;;12.73;3.80;;;6.30;90.00;;;;;;5075949;28;20448;-73
2021/01/19 03:18:36;;;;;;;11.63;5.93;;;6.20;90.10;;;;;;5075963;28;20440;-73
2021/01/19 03:21:04;;;;;;;9.50;3.63;;;6.20;90.00;;;;;;5075567;28;21014;-73
2021/01/19 03:23:31;;;;;;;7.70;2.93;;;6.20;90.10;;;;;;5075845;28;20469;-73
2021/01/19 03:25:57;;;;;;;6.80;2.50;;;6.20;90.20;;;;;;5075767;28;20456;-73
2021/01/19 03:28:23;;;;;;;5.73;2.70;;;6.20;90.40;;;;;;5075763;28;20422;-73
2021/01/19 03:30:50;;;;;;;8.40;2.70;;;6.20;90.40;;;;;;5075370;28;20942;-73
2021/01/19 03:33:16;;;;;;;5.43;2.93;;;6.20;90.40;;;;;;5075508;28;20531;-73
2021/01/19 03:35:43;;;;;;;5.87;3.10;;;6.30;90.50;;;;;;5075607;28;20440;-73
2021/01/19 03:38:09;;;;;;;11.13;3.50;;;6.30;90.50;;;;;;5075554;28;20448;-73
2021/01/19 03:40:38;;;;;;;10.03;3.20;;;6.20;90.40;;;;;;5075202;28;20938;-73
2021/01/19 03:43:04;;;;;;;12.40;3.70;;;6.20;90.50;;;;;;5075382;28;20506;-73
2021/01/19 03:45:30;;;;;;;8.70;2.37;;;6.30;90.60;;;;;;5075419;28;20447;-73
2021/01/19 03:47:57;;;;;;;8.33;2.90;;;6.30;90.70;;;;;;5075052;28;20930;-73
2021/01/19 03:50:23;;;;;;;7.17;3.10;;;6.30;90.60;;;;;;5075320;28;20449;-73
2021/01/19 03:52:50;;;;;;;10.83;3.00;;;6.30;90.60;;;;;;5075105;28;20480;-73
2021/01/19 03:55:17;;;;;;;10.13;2.90;;;6.30;90.60;;;;;;5075178;28;20445;-73
2021/01/19 03:57:43;;;;;;;7.97;3.23;;;6.30;90.70;;;;;;5075155;28;20447;-73
2021/01/19 04:00:14;;;;;;;7.03;3.30;;;6.30;90.60;;;;;;5074219;28;20525;-73
2021/01/19 04:02:40;;;;;;;9.97;3.17;;;6.40;90.60;;;;;;5075352;28;20477;-73
2021/01/19 04:05:07;;;;;;;11.97;2.53;;;6.30;90.40;;;;;;5074961;28;20441;-73
2021/01/19 04:07:37;;;;;;;6.80;2.77;;;6.40;90.60;;;;;;5074933;28;20448;-73
2021/01/19 04:10:06;;;;;;;12.83;2.20;;;6.40;90.50;;;;;;5074774;28;20441;-73
2021/01/19 04:12:32;;;;;;;5.67;2.23;;;6.30;90.50;;;;;;5074779;28;20471;-73
2021/01/19 04:14:58;;;;;;;12.37;2.30;;;6.40;90.60;;;;;;5074524;28;20440;-73
2021/01/19 04:17:24;;;;;;;6.10;3.10;;;6.40;90.60;;;;;;5074827;28;20444;-73
2021/01/19 04:19:50;;;;;;;10.60;3.70;;;6.50;90.50;;;;;;5074716;28;20444;-73
2021/01/19 04:22:16;;;;;;;8.00;2.60;;;6.50;90.60;;;;;;5074322;28;20985;-73
2021/01/19 04:24:43;;;;;;;8.80;2.70;;;6.50;90.60;;;;;;5074662;28;20441;-73
2021/01/19 04:27:10;;;;;;;9.87;2.70;;;6.60;90.50;;;;;;5074588;28;20498;-73
2021/01/19 04:29:36;;;;;;;6.23;2.33;;;6.60;90.60;;;;;;5074509;28;20448;-73
2021/01/19 04:32:02;;;;;;;8.93;2.10;;;6.60;90.70;;;;;;5074431;28;20461;-73
2021/01/19 04:34:28;;;;;;;3.60;2.07;;;6.60;90.40;;;;;;5074105;28;20990;-72
2021/01/19 04:36:54;;;;;;;12.77;2.73;;;6.60;90.60;;;;;;5074349;28;20448;-73
2021/01/19 04:39:20;;;;;;;5.03;2.40;;;6.60;90.70;;;;;;5074367;28;20436;-73
2021/01/19 04:41:48;;;;;;;6.50;1.90;;;6.60;90.80;;;;;;5074238;28;20448;-73
2021/01/19 04:44:16;;;;;;;7.60;2.53;;;6.60;90.80;;;;;;5074200;28;20489;-73
2021/01/19 04:46:44;;;;;;;6.97;2.20;;;6.70;90.90;;;;;;5074175;28;20448;-73
2021/01/19 04:49:11;;;;;;;6.43;2.00;;;6.70;91.10;;;;;;5073911;28;20806;-73
2021/01/19 04:51:39;;;;;;;6.20;2.40;;;6.70;91.40;;;;;;5073763;28;20472;-73
2021/01/19 04:54:07;;;;;;;8.33;2.57;;;6.70;91.50;;;;;;5074014;28;20554;-73
2021/01/19 04:56:38;;;;;;;7.50;3.20;;;6.70;91.60;;;;;;5073599;28;20801;-73
2021/01/19 04:59:11;;;;;;;4.90;2.20;;;6.70;91.50;;;;;;5073701;28;20768;-73
2021/01/19 05:02:15;;;;;;;4.70;1.97;;;6.70;91.50;;;;;;5073534;28;20438;-73
2021/01/19 05:04:50;;;;;;;5.87;2.47;;;6.70;91.60;;;;;;5073921;28;20478;-73
2021/01/19 05:07:33;;;;;;;4.10;1.90;;;6.80;91.80;;;;;;5074391;28;20428;-73
2021/01/19 05:13:48;;;;;;;4.90;2.33;;;6.80;92.30;;;;;;5073463;28;20529;-73
2021/01/19 05:16:15;;;;;;;7.00;2.50;;;6.80;92.10;;;;;;5073791;28;20450;-73
2021/01/19 05:18:43;;;;;;;3.80;1.73;;;6.80;92.00;;;;;;5073713;28;20437;-73
2021/01/19 05:21:10;;;;;;;9.43;1.80;;;6.80;92.40;;;;;;5073663;28;20441;-73
2021/01/19 05:23:36;;;;;;;5.60;2.57;;;6.90;92.60;;;;;;5073554;28;20465;-73
2021/01/19 05:26:06;;;;;;;3.70;2.17;;;6.80;92.90;;;;;;5073592;28;20452;-74
2021/01/19 05:28:36;;;;;;;6.50;2.60;;;6.80;93.20;;;;;;5073299;28;20432;-73
2021/01/19 05:31:05;;;;;;;4.93;1.80;;;6.80;93.40;;;;;;5073191;28;20867;-73
2021/01/19 05:33:31;;;;;;;3.67;1.57;;;6.70;93.70;;;;;;5073397;28;20523;-73
2021/01/19 05:36:08;;;;;;;5.53;1.70;;;6.80;93.90;;;;;;5073209;28;20440;-73
2021/01/19 05:38:52;;;;;;;3.10;2.20;;;6.80;93.90;;;;;;5073473;28;20803;-73
2021/01/19 05:41:30;;;;;;;6.93;1.90;;;6.80;94.10;;;;;;5073399;28;20756;-73
2021/01/19 05:44:07;;;;;;;3.17;1.90;;;6.80;94.10;;;;;;5073508;28;20452;-73
2021/01/19 05:46:34;;;;;;;5.70;1.70;;;6.80;94.00;;;;;;5073476;28;20432;-74
2021/01/19 05:49:02;;;;;;;3.53;1.57;;;6.70;94.20;;;;;;5073089;28;20429;-73
2021/01/19 05:51:30;;;;;;;5.53;1.50;;;6.70;94.50;;;;;;5073340;28;20441;-73
2021/01/19 05:53:58;;;;;;;3.40;1.50;;;6.70;94.50;;;;;;5073276;28;20456;-73
2021/01/19 05:56:26;;;;;;;4.40;1.97;;;6.70;94.60;;;;;;5073210;28;20444;-73
2021/01/19 05:58:53;;;;;;;5.03;1.50;;;6.70;94.80;;;;;;5072920;28;20937;-73
2021/01/19 06:01:30;;;;;;;9.73;1.80;;;6.70;94.80;;;;;;5072902;28;20433;-73
2021/01/19 06:03:58;;;;;;;3.73;1.90;;;6.70;94.80;;;;;;5072933;28;20894;-73
2021/01/19 06:06:26;;;;;;;5.40;1.53;;;6.80;94.90;;;;;;5073163;28;20448;-74
2021/01/19 06:08:59;;;;;;;10.63;1.80;;;6.80;95.30;;;;;;5073211;28;20862;-73
2021/01/19 06:11:26;;;;;;;1.97;1.30;;;6.80;94.90;;;;;;5072877;28;20487;-73
2021/01/19 06:13:53;;;;;;;4.60;1.47;;;6.80;95.10;;;;;;5072967;28;20480;-73
2021/01/19 06:16:24;;;;;;;7.50;1.40;;;6.80;95.00;;;;;;5073117;28;20441;-73
2021/01/19 06:18:51;;;;;;;3.57;1.40;;;6.70;95.20;;;;;;5072795;28;20444;-73
2021/01/19 06:21:27;;;;;;;2.40;1.20;;;6.80;95.40;;;;;;5073064;28;20428;-73
2021/01/19 06:23:54;;;;;;;2.40;1.50;;;6.80;95.40;;;;;;5075405;28;20869;-73
2021/01/19 06:26:21;;;;;;;3.00;1.20;;;6.70;95.50;;;;;;5076888;28;20444;-73
2021/01/19 06:28:47;;;;;;;3.33;1.40;;;6.70;95.60;;;;;;5076853;28;20494;-73
2021/01/19 06:31:15;;;;;;;2.70;1.60;;;6.70;95.70;;;;;;5076777;28;20789;-74
2021/01/19 06:33:42;;;;;;;1.47;0.90;;;6.70;95.90;;;;;;5076622;28;20487;-74
2021/01/19 06:36:09;;;;;;;2.93;0.97;;;6.70;95.80;;;;;;5076734;28;20452;-73
2021/01/19 06:38:35;;;;;;;4.10;1.37;;;6.70;95.90;;;;;;5076614;28;20788;-73
2021/01/19 06:41:02;;;;;;;1.57;1.17;;;6.70;95.80;;;;;;5076171;28;20880;-73
2021/01/19 06:43:35;;;;;;;1.53;1.33;;;6.80;95.90;;;;;;5076054;28;20973;-73
2021/01/19 06:46:07;;;;;;;4.20;1.30;;;6.70;95.90;;;;;;5076552;28;20437;-73
2021/01/19 06:48:35;;;;;;;2.80;0.97;;;6.70;95.80;;;;;;5076479;28;20455;-73
2021/01/19 06:51:06;;;;;;;1.27;1.03;;;6.80;96.00;;;;;;5076389;28;20445;-74
2021/01/19 06:53:37;;;;;;;3.23;1.10;;;6.80;96.10;;;;;;5075090;28;20450;-74
2021/01/19 06:56:11;;;;;;;2.57;0.93;;;6.80;96.10;;;;;;5076345;28;20429;-74
2021/01/19 06:58:55;;;;;;;2.33;1.10;;;6.80;96.10;;;;;;5076313;28;20525;-74
2021/01/19 07:01:22;;;;;;;4.40;2.10;;;6.80;96.10;;;;;;5075985;28;20429;-74
2021/01/19 07:03:55;;;;;;;6.63;3.07;;;6.80;96.00;;;;;;5075865;28;20973;-73
2021/01/19 07:06:44;;;;;;;3.83;1.23;;;6.80;96.10;;;;;;5075897;28;20824;-73
2021/01/19 07:09:38;;;;;;;1.80;0.80;;;6.80;96.40;;;;;;5076058;28;20425;-73
2021/01/19 07:12:09;;;;;;;3.43;1.10;;;6.80;96.30;;;;;;5075583;28;20468;-74
2021/01/19 07:14:44;;;;;;;5.77;1.43;;;6.80;96.40;;;;;;5076072;28;20487;-73
2021/01/19 07:17:16;;;;;;;2.00;1.10;;;6.80;96.40;;;;;;5075989;28;20428;-73
2021/01/19 07:19:47;;;;;;;5.30;1.10;;;6.80;96.50;;;;;;5075527;28;20935;-73
2021/01/19 07:22:41;;;;;;;3.10;1.30;;;6.80;96.60;;;;;;5075797;28;20460;-73
2021/01/19 07:25:08;;;;;;;2.70;1.20;;;6.80;96.70;;;;;;5075837;28;20432;-73
2021/01/19 07:27:36;;;;;;;6.23;1.23;;;6.80;96.70;;;;;;5076022;28;20425;-73
2021/01/19 07:30:06;;;;;;;5.30;1.40;;;6.80;96.80;;;;;;5076411;28;20429;-73
2021/01/19 07:32:36;;;;;;;3.43;1.40;;;6.70;96.90;;;;;;5075589;28;20529;-73
2021/01/19 07:35:05;;;;;;;3.00;1.37;;;6.70;97.00;;;;;;5074321;28;20472;-73
2021/01/19 07:37:32;;;;;;;4.47;1.30;;;6.70;97.10;;;;;;5075591;28;20499;-73
2021/01/19 07:39:59;;;;;;;1.90;1.70;;;6.80;97.00;;;;;;5075533;28;20448;-73
2021/01/19 07:42:26;;;;;;;2.43;1.10;;;6.80;97.00;;;;;;5075435;28;20460;-73
2021/01/19 07:44:56;;;;;;;2.13;1.00;;;6.80;97.10;;;;;;5075427;28;20902;-73
2021/01/19 07:47:34;;;;;;;2.60;1.10;;;6.70;97.00;;;;;;5075044;28;20466;-73
2021/01/19 07:50:02;;;;;;;3.27;1.20;;;6.70;97.10;;;;;;5075387;28;20431;-73
2021/01/19 07:52:36;;;;;;;4.10;1.30;;;6.70;97.10;;;;;;5074857;28;20460;-73
2021/01/19 07:55:13;;;;;;;4.13;1.27;;;6.70;97.30;;;;;;5075252;28;20508;-73
2021/01/19 07:57:40;;;;;;;2.77;1.80;;;6.70;97.20;;;;;;5075231;28;20429;-73
2021/01/19 08:00:07;;;;;;;6.90;1.70;;;6.70;97.10;;;;;;5075161;28;20485;-73
2021/01/19 08:02:34;;;;;;;2.30;1.37;;;6.80;97.20;;;;;;5075059;28;20464;-73
2021/01/19 08:05:02;;;;;;;2.10;1.07;;;6.80;97.20;;;;;;5074999;28;20446;-73
2021/01/19 08:07:38;;;;;;;4.40;1.30;;;6.80;97.00;;;;;;5074632;28;20931;-73
2021/01/19 08:10:17;;;;;;;4.53;1.33;;;6.80;97.10;;;;;;5074826;28;20460;-73
2021/01/19 08:12:43;;;;;;;2.00;0.90;;;6.80;97.10;;;;;;5074519;28;20982;-73
2021/01/19 08:15:11;;;;;;;2.37;1.00;;;6.80;97.00;;;;;;5074786;28;20541;-73
2021/01/19 08:17:38;;;;;;;4.20;1.20;;;6.80;97.20;;;;;;5074774;28;20445;-73
2021/01/19 08:20:08;;;;;;;3.23;1.50;;;6.80;97.20;;;;;;5074709;28;20451;-73
2021/01/19 08:22:34;;;;;;;2.83;1.37;;;6.80;97.20;;;;;;5074632;28;20464;-73
2021/01/19 08:25:00;;;;;;;5.63;1.47;;;6.80;97.20;;;;;;5074603;28;20448;-74
2021/01/19 08:27:28;;;;;;;4.90;2.87;;;6.80;97.40;;;;;;5074216;28;20445;-73
2021/01/19 08:29:54;;;;;;;7.07;2.17;;;6.90;97.70;;;;;;5074480;28;20445;-74
2021/01/19 08:32:21;;;;;;;2.63;1.67;;;6.80;97.50;;;;;;5074088;28;20460;-74
2021/01/19 08:34:48;;;;;;;3.10;0.90;;;6.80;97.50;;;;;;5074315;28;20476;-73
2021/01/19 08:37:17;;;;;;;5.90;1.37;;;6.90;97.60;;;;;;5074375;28;20494;-74
2021/01/19 08:39:52;;;;;;;1.57;1.10;;;6.90;97.40;;;;;;5074508;28;20502;-73
2021/01/19 08:42:20;;;;;;;2.00;1.07;;;6.90;97.20;;;;;;5074223;28;20463;-73
2021/01/19 08:44:56;;;;;;;2.33;1.10;;;7.00;97.30;;;;;;5074230;28;20444;-73
2021/01/19 08:47:22;;;;;;;3.87;0.90;;;7.00;97.40;;;;;;5073989;28;20493;-73
2021/01/19 08:49:49;;;;;;;6.03;2.03;;;7.10;97.10;;;;;;5074159;28;20432;-73
2021/01/19 08:52:16;;;;;;;2.53;1.00;;;7.00;96.90;;;;;;5074066;28;20460;-73
2021/01/19 08:54:42;;;;;;;3.60;1.83;;;7.10;97.00;;;;;;5074031;28;20465;-73
2021/01/19 08:57:08;;;;;;;3.10;1.20;;;7.10;97.00;;;;;;5074097;28;20793;-73
2021/01/19 08:59:34;;;;;;;1.30;0.80;;;7.10;97.00;;;;;;5073988;28;20441;-73
2021/01/19 09:02:00;;;;;;;1.50;0.97;;;7.10;97.00;;;;;;5073904;28;20465;-74
2021/01/19 09:04:28;;;;;;;2.07;1.00;;;7.00;96.90;;;;;;5073946;28;20422;-73
2021/01/19 09:07:07;;;;;;;2.60;0.97;;;7.00;97.10;;;;;;5073818;28;20452;-73
2021/01/19 09:09:33;;;;;;;2.47;1.60;;;7.00;97.10;;;;;;5073571;28;20782;-73
2021/01/19 09:12:00;;;;;;;2.23;0.97;;;6.90;97.30;;;;;;5073378;28;20490;-73
2021/01/19 09:14:27;;;;;;;3.43;1.10;;;6.90;97.30;;;;;;5073644;28;20476;-73
2021/01/19 09:16:54;;;;;;;1.10;0.97;;;6.90;97.50;;;;;;5073714;28;20440;-73
2021/01/19 09:19:20;;;;;;;1.33;1.10;;;6.90;97.50;;;;;;5073746;28;20451;-73
2021/01/19 09:21:47;;;;;;;3.03;2.10;;;6.90;97.60;;;;;;5073612;28;20449;-73
2021/01/19 09:24:16;;;;;;;2.33;0.83;;;6.90;97.30;;;;;;5073610;28;20502;-73
2021/01/19 09:26:56;;;;;;;3.97;1.10;;;6.90;97.30;;;;;;5073573;28;20459;-73
2021/01/19 09:29:23;;;;;;;3.10;1.00;;;6.90;97.50;;;;;;5073767;28;20429;-73
2021/01/19 09:31:49;;;;;;;1.90;0.80;;;6.90;97.60;;;;;;5073499;28;20432;-73
2021/01/19 09:34:19;;;;;;;2.30;1.30;;;6.90;97.60;;;;;;5073502;28;20476;-73
2021/01/19 09:36:46;;;;;;;3.80;1.50;;;6.90;97.30;;;;;;5073457;28;20479;-73
2021/01/19 09:39:13;;;;;;;8.23;1.17;;;6.90;97.40;;;;;;5073420;28;20460;-73
2021/01/19 09:41:44;;;;;;;2.97;1.00;;;6.90;97.20;;;;;;5073351;28;20440;-73
2021/01/19 09:44:12;;;;;;;2.57;0.93;;;6.90;97.20;;;;;;5073475;28;20810;-73
2021/01/19 09:46:39;;;;;;;1.00;0.90;;;6.90;97.30;;;;;;5073079;28;20480;-73
2021/01/19 09:49:05;;;;;;;1.17;0.80;;;6.90;97.40;;;;;;5073429;28;20803;-73
2021/01/19 09:51:31;;;;;;;2.60;0.90;;;6.90;97.40;;;;;;5073348;28;20497;-73
2021/01/19 09:53:59;;;;;;;3.13;0.80;;;7.00;97.70;;;;;;5073146;28;20892;-73
2021/01/19 09:56:27;;;;;;;1.60;0.90;;;7.00;97.80;;;;;;5073007;28;20942;-73
2021/01/19 09:59:01;;;;;;;2.47;0.90;;;7.00;97.70;;;;;;5076215;28;20459;-73
2021/01/19 10:01:27;;;;;;;1.30;1.20;;;7.00;98.20;;;;;;5077191;28;20915;-73
2021/01/19 10:03:54;;;;;;;0.80;0.60;;;7.10;98.10;;;;;;5077285;28;20457;-73
2021/01/19 10:06:22;;;;;;;1.90;0.77;;;7.00;97.80;;;;;;5077355;28;20429;-73
2021/01/19 10:08:51;;;;;;;1.20;0.80;;;7.10;97.80;;;;;;5077261;28;20451;-73
2021/01/19 10:11:29;;;;;;;1.10;1.00;;;7.10;98.00;;;;;;5076969;28;20521;-73
2021/01/19 10:13:55;;;;;;;2.90;1.10;;;7.10;97.80;;;;;;5077058;28;20487;-73
2021/01/19 10:16:27;;;;;;;0.93;0.80;;;7.10;97.70;;;;;;5077120;28;20452;-73
2021/01/19 10:18:53;;;;;;;2.00;1.00;;;7.10;98.10;;;;;;5077094;28;20436;-73
2021/01/19 10:21:28;;;;;;;1.57;1.07;;;7.10;97.80;;;;;;5076974;28;20444;-73
2021/01/19 10:23:54;;;;;;;5.43;0.90;;;7.10;97.70;;;;;;5076926;28;20493;-73
2021/01/19 10:26:28;;;;;;;2.00;1.33;;;7.10;97.20;;;;;;5076902;28;20448;-73
2021/01/19 10:28:56;;;;;;;1.80;1.00;;;7.10;97.40;;;;;;5076646;28;20966;-73
2021/01/19 10:31:26;;;;;;;2.60;0.93;;;7.10;97.40;;;;;;5076831;28;20466;-73
2021/01/19 10:34:01;;;;;;;2.10;1.00;;;7.10;97.50;;;;;;5076616;28;20581;-73
2021/01/19 10:36:29;;;;;;;2.70;1.40;;;7.10;97.50;;;;;;5076456;28;20439;-73
2021/01/19 10:39:02;;;;;;;2.20;1.10;;;7.10;97.60;;;;;;5076351;28;20959;-73
2021/01/19 10:41:30;;;;;;;1.40;0.90;;;7.10;97.40;;;;;;5076662;28;20429;-73
2021/01/19 10:43:57;;;;;;;1.60;1.40;;;7.10;97.60;;;;;;5076487;28;20456;-73
2021/01/19 10:46:26;;;;;;;1.80;1.37;;;7.10;98.00;;;;;;5076607;28;20433;-73
2021/01/19 10:49:06;;;;;;;1.20;0.90;;;7.20;97.80;;;;;;5076534;28;20452;-73
2021/01/19 10:51:33;;;;;;;1.20;1.10;;;7.20;97.60;;;;;;5076510;28;20837;-73
2021/01/19 10:54:07;;;;;;;1.70;1.60;;;7.20;97.80;;;;;;5076045;28;20476;-73
2021/01/19 10:56:35;;;;;;;1.13;1.00;;;7.30;97.70;;;;;;5076330;28;20488;-73
2021/01/19 10:59:01;;;;;;;1.43;1.00;;;7.30;97.80;;;;;;5076084;28;20899;-73
2021/01/19 11:01:28;;;;;;;1.53;1.20;;;7.40;97.80;;;;;;5075960;28;20448;-73
2021/01/19 11:03:54;;;;;;;2.40;1.30;;;7.40;97.50;;;;;;5075780;28;20990;-73
2021/01/19 11:06:21;;;;;;;2.27;0.80;;;7.50;97.50;;;;;;5075916;28;20429;-73
2021/01/19 11:08:48;;;;;;;1.93;1.00;;;7.50;97.40;;;;;;5075829;28;20428;-73
2021/01/19 11:11:14;;;;;;;1.40;1.00;;;7.50;97.50;;;;;;5075784;28;20463;-73
2021/01/19 11:13:41;;;;;;;2.00;0.80;;;7.60;97.30;;;;;;5075430;28;20484;-73
2021/01/19 11:16:07;;;;;;;1.33;1.23;;;7.60;97.20;;;;;;5076179;28;20440;-73
2021/01/19 11:18:36;;;;;;;1.90;0.97;;;7.60;97.20;;;;;;5076034;28;20476;-73
2021/01/19 11:21:04;;;;;;;1.80;1.00;;;7.70;97.20;;;;;;5075913;28;20441;-73
2021/01/19 11:23:30;;;;;;;1.70;0.77;;;7.70;97.30;;;;;;5075773;28;20472;-73
2021/01/19 11:25:57;;;;;;;3.60;1.00;;;7.70;97.30;;;;;;5075828;28;20450;-73
2021/01/19 11:28:23;;;;;;;1.63;1.30;;;7.80;97.10;;;;;;5075794;28;20810;-73
2021/01/19 11:30:51;;;;;;;1.20;0.83;;;7.80;97.10;;;;;;5075732;28;20468;-73
2021/01/19 11:33:17;;;;;;;3.23;0.90;;;7.90;97.20;;;;;;5075205;28;20985;-73
2021/01/19 11:35:43;;;;;;;0.80;0.80;;;7.80;97.10;;;;;;5075611;28;20452;-73
2021/01/19 11:38:09;;;;;;;1.33;1.23;;;7.90;97.10;;;;;;5075252;28;20934;-73
2021/01/19 11:40:36;;;;;;;1.03;0.73;;;7.90;97.20;;;;;;5075632;28;20436;-75
2021/01/19 11:43:02;;;;;;;1.23;0.70;;;7.90;97.10;;;;;;5075026;28;20468;-73
2021/01/19 11:45:28;;;;;;;2.40;1.20;;;8.00;97.20;;;;;;5075477;28;20421;-74
2021/01/19 11:47:55;;;;;;;0.80;0.80;;;8.00;97.30;;;;;;5075437;28;20444;-73
2021/01/19 11:50:21;;;;;;;0.70;0.70;;;8.00;97.40;;;;;;5075351;28;20813;-73
2021/01/19 11:52:48;;;;;;;1.43;0.70;;;8.10;97.30;;;;;;5075259;28;20582;-73
2021/01/19 11:55:15;;;;;;;3.03;1.13;;;8.10;97.30;;;;;;5075216;28;20461;-73
2021/01/19 11:57:41;;;;;;;1.17;1.07;;;8.10;97.50;;;;;;5075249;28;20440;-73
2021/01/19 12:00:09;;;;;;;1.23;0.80;;;8.10;97.40;;;;;;5075133;28;20791;-73
2021/01/19 12:02:35;;;;;;;1.20;1.20;;;8.20;97.50;;;;;;5075072;28;20529;-73
2021/01/19 12:05:02;;;;;;;0.80;0.80;;;8.20;97.50;;;;;;5075087;28;20437;-73
2021/01/19 12:07:29;;;;;;;1.83;1.10;;;8.20;97.60;;;;;;5074715;28;20474;-73
2021/01/19 12:09:55;;;;;;;1.00;1.00;;;8.20;97.40;;;;;;5075514;28;20452;-73
2021/01/19 12:12:21;;;;;;;2.20;1.00;;;8.20;97.50;;;;;;5074521;28;20488;-73
2021/01/19 12:14:47;;;;;;;2.60;0.87;;;8.20;97.40;;;;;;5074830;28;20469;-73
2021/01/19 12:17:14;;;;;;;1.10;0.83;;;8.20;97.20;;;;;;5074833;28;20466;-73
2021/01/19 12:19:41;;;;;;;3.53;2.10;;;8.20;97.20;;;;;;5074678;28;20429;-73
2021/01/19 12:22:08;;;;;;;1.20;1.10;;;8.30;97.30;;;;;;5074089;28;20492;-73
2021/01/19 12:24:36;;;;;;;1.20;1.03;;;8.30;97.30;;;;;;5074646;28;20443;-73
2021/01/19 12:27:02;;;;;;;1.20;1.10;;;8.30;97.20;;;;;;5075089;28;20425;-72
2021/01/19 12:29:28;;;;;;;1.03;1.03;;;8.40;97.30;;;;;;5074614;28;20429;-73
2021/01/19 12:32:01;;;;;;;1.03;0.93;;;8.40;97.10;;;;;;5074461;28;20444;-72
2021/01/19 12:34:27;;;;;;;1.03;0.90;;;8.40;97.20;;;;;;5074955;28;20460;-73
2021/01/19 12:36:53;;;;;;;1.53;1.30;;;8.40;97.30;;;;;;5074546;28;20436;-73
2021/01/19 12:39:20;;;;;;;1.93;0.77;;;8.50;97.50;;;;;;5074447;28;20440;-73
2021/01/19 12:41:46;;;;;;;1.13;1.00;;;8.50;97.40;;;;;;5074316;28;20440;-73
2021/01/19 12:44:12;;;;;;;1.27;1.17;;;8.50;97.50;;;;;;5074317;28;20441;-73
2021/01/19 12:46:39;;;;;;;0.87;0.87;;;8.50;97.40;;;;;;5073966;28;20832;-73
2021/01/19 12:49:05;;;;;;;1.57;1.27;;;8.60;97.60;;;;;;5073912;28;20933;-73
2021/01/19 12:51:31;;;;;;;1.97;1.07;;;8.60;97.70;;;;;;5074194;28;20452;-73
2021/01/19 12:53:57;;;;;;;2.57;1.00;;;8.60;97.70;;;;;;5073950;28;20850;-73
2021/01/19 12:56:25;;;;;;;1.10;1.10;;;8.60;97.60;;;;;;5074064;28;20417;-73
2021/01/19 12:58:51;;;;;;;1.37;1.10;;;8.70;97.80;;;;;;5073742;28;20441;-73
2021/01/19 13:01:17;;;;;;;0.87;0.87;;;8.70;97.70;;;;;;5074045;28;20425;-72
2021/01/19 13:03:43;;;;;;;1.80;0.80;;;8.80;97.80;;;;;;5073817;28;20460;-72
2021/01/19 13:06:10;;;;;;;1.43;1.20;;;8.80;97.50;;;;;;5073905;28;20467;-73
2021/01/19 13:08:37;;;;;;;1.33;1.23;;;8.90;97.50;;;;;;5073891;28;20447;-73